sensor_id;sensor_type;location;lat;lon;timestamp;P1;durP1;ratioP1;P2;durP2;ratioP2
55833;SDS011;41761;43.004;-0.066;2022-09-27T00:00:59;5.25;;;2.65;;
55833;SDS011;41761;43.004;-0.066;2022-09-27T00:03:25;6.57;;;2.22;;
55833;SDS011;41761;43.004;-0.066;2022-09-27T00:06:01;8.65;;;2.55;;
55833;SDS011;41761;43.004;-0.066;2022-09-27T00:08:29;4.38;;;2.33;;
55833;SDS011;41761;43.004;-0.066;2022-09-27T00:11:16;13.30;;;2.53;;
55833;SDS011;41761;43.004;-0.066;2022-09-27T00:13:44;3.55;;;2.08;;
55833;SDS011;41761;43.004;-0.066;2022-09-27T00:16:11;8.70;;;2.80;;
55833;SDS011;41761;43.004;-0.066;2022-09-27T00:18:37;5.43;;;2.25;;
55833;SDS011;41761;43.004;-0.066;2022-09-27T00:21:07;16.02;;;2.67;;
55833;SDS011;41761;43.004;-0.066;2022-09-27T00:23:33;8.05;;;2.85;;
55833;SDS011;41761;43.004;-0.066;2022-09-27T00:26:00;4.72;;;2.53;;
55833;SDS011;41761;43.004;-0.066;2022-09-27T00:28:26;8.95;;;2.17;;
55833;SDS011;41761;43.004;-0.066;2022-09-27T00:30:52;5.47;;;2.65;;
55833;SDS011;41761;43.004;-0.066;2022-09-27T00:33:19;9.35;;;2.78;;
55833;SDS011;41761;43.004;-0.066;2022-09-27T00:35:45;3.25;;;2.05;;
55833;SDS011;41761;43.004;-0.066;2022-09-27T00:38:12;6.45;;;1.98;;
55833;SDS011;41761;43.004;-0.066;2022-09-27T00:40:38;5.07;;;2.20;;
55833;SDS011;41761;43.004;-0.066;2022-09-27T00:43:23;7.20;;;2.83;;
55833;SDS011;41761;43.004;-0.066;2022-09-27T00:45:53;5.43;;;2.40;;
55833;SDS011;41761;43.004;-0.066;2022-09-27T00:48:22;11.90;;;2.55;;
55833;SDS011;41761;43.004;-0.066;2022-09-27T00:50:49;8.48;;;2.67;;
55833;SDS011;41761;43.004;-0.066;2022-09-27T00:55:56;9.95;;;3.03;;
55833;SDS011;41761;43.004;-0.066;2022-09-27T00:58:26;5.90;;;2.35;;
55833;SDS011;41761;43.004;-0.066;2022-09-27T01:00:55;11.40;;;2.58;;
55833;SDS011;41761;43.004;-0.066;2022-09-27T01:03:28;5.15;;;2.97;;
55833;SDS011;41761;43.004;-0.066;2022-09-27T01:05:56;10.20;;;3.03;;
55833;SDS011;41761;43.004;-0.066;2022-09-27T01:08:24;5.20;;;2.90;;
55833;SDS011;41761;43.004;-0.066;2022-09-27T01:11:01;5.32;;;2.45;;
55833;SDS011;41761;43.004;-0.066;2022-09-27T01:13:41;7.03;;;2.75;;
55833;SDS011;41761;43.004;-0.066;2022-09-27T01:18:39;7.03;;;2.33;;
55833;SDS011;41761;43.004;-0.066;2022-09-27T01:23:41;5.35;;;2.53;;
55833;SDS011;41761;43.004;-0.066;2022-09-27T01:31:23;6.50;;;3.00;;
55833;SDS011;41761;43.004;-0.066;2022-09-27T01:39:02;8.07;;;3.30;;
55833;SDS011;41761;43.004;-0.066;2022-09-27T01:44:12;6.70;;;2.83;;
55833;SDS011;41761;43.004;-0.066;2022-09-27T01:47:02;4.95;;;3.17;;
55833;SDS011;41761;43.004;-0.066;2022-09-27T01:49:32;5.50;;;2.40;;
55833;SDS011;41761;43.004;-0.066;2022-09-27T01:52:00;2.95;;;2.42;;
55833;SDS011;41761;43.004;-0.066;2022-09-27T01:54:29;4.18;;;2.47;;
55833;SDS011;41761;43.004;-0.066;2022-09-27T01:56:56;4.45;;;2.80;;
55833;SDS011;41761;43.004;-0.066;2022-09-27T01:59:28;3.92;;;2.65;;
55833;SDS011;41761;43.004;-0.066;2022-09-27T02:01:57;3.33;;;2.85;;
55833;SDS011;41761;43.004;-0.066;2022-09-27T02:04:26;3.80;;;2.45;;
55833;SDS011;41761;43.004;-0.066;2022-09-27T02:06:55;4.65;;;2.50;;
55833;SDS011;41761;43.004;-0.066;2022-09-27T02:11:56;7.25;;;2.72;;
55833;SDS011;41761;43.004;-0.066;2022-09-27T02:14:25;3.95;;;2.60;;
55833;SDS011;41761;43.004;-0.066;2022-09-27T02:16:53;2.42;;;2.22;;
55833;SDS011;41761;43.004;-0.066;2022-09-27T02:19:24;3.10;;;2.90;;
55833;SDS011;41761;43.004;-0.066;2022-09-27T02:24:28;2.90;;;2.65;;
55833;SDS011;41761;43.004;-0.066;2022-09-27T02:26:59;2.63;;;2.45;;
55833;SDS011;41761;43.004;-0.066;2022-09-27T02:29:29;5.65;;;2.45;;
55833;SDS011;41761;43.004;-0.066;2022-09-27T02:31:58;2.38;;;1.92;;
55833;SDS011;41761;43.004;-0.066;2022-09-27T02:34:25;4.65;;;2.42;;
55833;SDS011;41761;43.004;-0.066;2022-09-27T02:36:53;3.45;;;2.50;;
55833;SDS011;41761;43.004;-0.066;2022-09-27T02:39:19;3.22;;;2.13;;
55833;SDS011;41761;43.004;-0.066;2022-09-27T02:41:46;2.10;;;1.88;;
55833;SDS011;41761;43.004;-0.066;2022-09-27T02:44:12;3.80;;;2.70;;
55833;SDS011;41761;43.004;-0.066;2022-09-27T02:57:06;2.10;;;2.00;;
55833;SDS011;41761;43.004;-0.066;2022-09-27T03:04:55;3.50;;;2.42;;
55833;SDS011;41761;43.004;-0.066;2022-09-27T03:07:22;2.40;;;2.20;;
55833;SDS011;41761;43.004;-0.066;2022-09-27T03:09:49;6.97;;;2.60;;
55833;SDS011;41761;43.004;-0.066;2022-09-27T03:12:16;3.22;;;2.95;;
55833;SDS011;41761;43.004;-0.066;2022-09-27T03:14:59;2.42;;;2.22;;
55833;SDS011;41761;43.004;-0.066;2022-09-27T03:17:25;2.50;;;2.30;;
55833;SDS011;41761;43.004;-0.066;2022-09-27T03:19:51;2.47;;;2.17;;
55833;SDS011;41761;43.004;-0.066;2022-09-27T03:22:17;2.97;;;2.20;;
55833;SDS011;41761;43.004;-0.066;2022-09-27T03:24:44;1.90;;;1.80;;
55833;SDS011;41761;43.004;-0.066;2022-09-27T03:27:10;2.45;;;1.90;;
55833;SDS011;41761;43.004;-0.066;2022-09-27T03:29:36;2.15;;;1.95;;
55833;SDS011;41761;43.004;-0.066;2022-09-27T03:32:02;2.47;;;2.28;;
55833;SDS011;41761;43.004;-0.066;2022-09-27T03:34:29;2.22;;;2.10;;
55833;SDS011;41761;43.004;-0.066;2022-09-27T03:36:55;3.13;;;1.73;;
55833;SDS011;41761;43.004;-0.066;2022-09-27T03:39:21;2.40;;;2.30;;
55833;SDS011;41761;43.004;-0.066;2022-09-27T03:41:47;2.33;;;2.17;;
55833;SDS011;41761;43.004;-0.066;2022-09-27T03:44:14;2.38;;;2.28;;
55833;SDS011;41761;43.004;-0.066;2022-09-27T03:46:40;4.53;;;2.10;;
55833;SDS011;41761;43.004;-0.066;2022-09-27T03:49:06;2.70;;;1.85;;
55833;SDS011;41761;43.004;-0.066;2022-09-27T03:51:32;1.58;;;1.58;;
55833;SDS011;41761;43.004;-0.066;2022-09-27T03:53:58;2.03;;;1.92;;
55833;SDS011;41761;43.004;-0.066;2022-09-27T03:56:25;2.30;;;2.20;;
55833;SDS011;41761;43.004;-0.066;2022-09-27T03:58:51;2.50;;;2.40;;
55833;SDS011;41761;43.004;-0.066;2022-09-27T04:01:17;1.65;;;1.65;;
55833;SDS011;41761;43.004;-0.066;2022-09-27T04:03:43;1.88;;;1.77;;
55833;SDS011;41761;43.004;-0.066;2022-09-27T04:06:10;1.77;;;1.67;;
55833;SDS011;41761;43.004;-0.066;2022-09-27T04:08:36;1.85;;;1.75;;
55833;SDS011;41761;43.004;-0.066;2022-09-27T04:11:02;2.00;;;1.90;;
55833;SDS011;41761;43.004;-0.066;2022-09-27T04:13:28;2.25;;;1.63;;
55833;SDS011;41761;43.004;-0.066;2022-09-27T04:15:54;2.03;;;1.92;;
55833;SDS011;41761;43.004;-0.066;2022-09-27T04:18:21;2.05;;;1.88;;
55833;SDS011;41761;43.004;-0.066;2022-09-27T04:20:47;2.10;;;2.00;;
55833;SDS011;41761;43.004;-0.066;2022-09-27T04:23:13;1.83;;;1.77;;
55833;SDS011;41761;43.004;-0.066;2022-09-27T04:25:39;2.25;;;1.90;;
55833;SDS011;41761;43.004;-0.066;2022-09-27T04:28:05;2.78;;;1.95;;
55833;SDS011;41761;43.004;-0.066;2022-09-27T04:30:32;2.33;;;1.98;;
55833;SDS011;41761;43.004;-0.066;2022-09-27T04:32:58;2.40;;;1.80;;
55833;SDS011;41761;43.004;-0.066;2022-09-27T04:35:24;3.42;;;2.47;;
55833;SDS011;41761;43.004;-0.066;2022-09-27T04:38:09;5.43;;;2.38;;
55833;SDS011;41761;43.004;-0.066;2022-09-27T04:40:35;5.20;;;2.33;;
55833;SDS011;41761;43.004;-0.066;2022-09-27T04:43:02;5.15;;;2.50;;
55833;SDS011;41761;43.004;-0.066;2022-09-27T04:45:28;6.68;;;2.47;;
55833;SDS011;41761;43.004;-0.066;2022-09-27T04:47:54;3.75;;;2.15;;
55833;SDS011;41761;43.004;-0.066;2022-09-27T04:50:21;4.22;;;2.33;;
55833;SDS011;41761;43.004;-0.066;2022-09-27T04:52:51;2.60;;;2.05;;
55833;SDS011;41761;43.004;-0.066;2022-09-27T04:55:18;5.97;;;1.95;;
55833;SDS011;41761;43.004;-0.066;2022-09-27T04:57:44;2.30;;;1.90;;
55833;SDS011;41761;43.004;-0.066;2022-09-27T05:00:11;5.35;;;2.25;;
55833;SDS011;41761;43.004;-0.066;2022-09-27T05:02:37;2.83;;;1.73;;
55833;SDS011;41761;43.004;-0.066;2022-09-27T05:05:04;6.05;;;2.00;;
55833;SDS011;41761;43.004;-0.066;2022-09-27T05:07:32;6.90;;;2.35;;
55833;SDS011;41761;43.004;-0.066;2022-09-27T05:09:59;5.30;;;2.13;;
55833;SDS011;41761;43.004;-0.066;2022-09-27T05:12:25;5.05;;;2.10;;
55833;SDS011;41761;43.004;-0.066;2022-09-27T05:14:52;3.50;;;1.88;;
55833;SDS011;41761;43.004;-0.066;2022-09-27T05:17:18;3.92;;;1.75;;
55833;SDS011;41761;43.004;-0.066;2022-09-27T05:19:46;4.63;;;2.47;;
55833;SDS011;41761;43.004;-0.066;2022-09-27T05:22:13;7.05;;;2.60;;
55833;SDS011;41761;43.004;-0.066;2022-09-27T05:24:39;7.53;;;2.45;;
55833;SDS011;41761;43.004;-0.066;2022-09-27T05:27:06;8.23;;;2.75;;
55833;SDS011;41761;43.004;-0.066;2022-09-27T05:29:33;9.40;;;2.58;;
55833;SDS011;41761;43.004;-0.066;2022-09-27T05:32:02;13.60;;;3.72;;
55833;SDS011;41761;43.004;-0.066;2022-09-27T05:34:29;13.93;;;3.75;;
55833;SDS011;41761;43.004;-0.066;2022-09-27T05:36:56;17.30;;;4.93;;
55833;SDS011;41761;43.004;-0.066;2022-09-27T05:39:23;16.83;;;4.18;;
55833;SDS011;41761;43.004;-0.066;2022-09-27T05:41:49;19.02;;;3.78;;
55833;SDS011;41761;43.004;-0.066;2022-09-27T05:44:16;9.13;;;3.67;;
55833;SDS011;41761;43.004;-0.066;2022-09-27T05:46:42;11.00;;;3.10;;
55833;SDS011;41761;43.004;-0.066;2022-09-27T05:49:10;12.10;;;2.80;;
55833;SDS011;41761;43.004;-0.066;2022-09-27T05:51:36;10.32;;;2.85;;
55833;SDS011;41761;43.004;-0.066;2022-09-27T05:54:02;11.85;;;2.42;;
55833;SDS011;41761;43.004;-0.066;2022-09-27T05:56:28;4.63;;;2.58;;
55833;SDS011;41761;43.004;-0.066;2022-09-27T05:58:55;8.35;;;2.88;;
55833;SDS011;41761;43.004;-0.066;2022-09-27T06:01:22;8.40;;;3.10;;
55833;SDS011;41761;43.004;-0.066;2022-09-27T06:03:50;9.25;;;2.13;;
55833;SDS011;41761;43.004;-0.066;2022-09-27T06:06:17;8.85;;;2.88;;
55833;SDS011;41761;43.004;-0.066;2022-09-27T06:08:43;14.38;;;4.05;;
55833;SDS011;41761;43.004;-0.066;2022-09-27T06:11:10;9.80;;;2.72;;
55833;SDS011;41761;43.004;-0.066;2022-09-27T06:13:37;9.02;;;2.80;;
55833;SDS011;41761;43.004;-0.066;2022-09-27T06:16:04;8.23;;;2.97;;
55833;SDS011;41761;43.004;-0.066;2022-09-27T06:18:31;9.82;;;2.53;;
55833;SDS011;41761;43.004;-0.066;2022-09-27T06:20:58;18.83;;;3.95;;
55833;SDS011;41761;43.004;-0.066;2022-09-27T06:23:24;11.73;;;4.90;;
55833;SDS011;41761;43.004;-0.066;2022-09-27T06:25:51;18.25;;;5.15;;
55833;SDS011;41761;43.004;-0.066;2022-09-27T06:28:18;13.75;;;3.63;;
55833;SDS011;41761;43.004;-0.066;2022-09-27T06:30:46;9.80;;;2.60;;
55833;SDS011;41761;43.004;-0.066;2022-09-27T06:33:16;9.77;;;3.05;;
55833;SDS011;41761;43.004;-0.066;2022-09-27T06:35:43;13.18;;;3.25;;
55833;SDS011;41761;43.004;-0.066;2022-09-27T06:38:11;14.40;;;3.15;;
55833;SDS011;41761;43.004;-0.066;2022-09-27T06:40:37;11.93;;;2.95;;
55833;SDS011;41761;43.004;-0.066;2022-09-27T06:43:07;11.27;;;3.10;;
55833;SDS011;41761;43.004;-0.066;2022-09-27T06:45:35;14.63;;;3.38;;
55833;SDS011;41761;43.004;-0.066;2022-09-27T06:48:02;15.32;;;4.07;;
55833;SDS011;41761;43.004;-0.066;2022-09-27T06:50:29;19.27;;;4.40;;
55833;SDS011;41761;43.004;-0.066;2022-09-27T06:52:57;18.27;;;4.80;;
55833;SDS011;41761;43.004;-0.066;2022-09-27T06:55:23;14.80;;;4.30;;
55833;SDS011;41761;43.004;-0.066;2022-09-27T06:57:53;16.48;;;4.60;;
55833;SDS011;41761;43.004;-0.066;2022-09-27T07:00:38;27.05;;;5.25;;
55833;SDS011;41761;43.004;-0.066;2022-09-27T07:03:04;22.17;;;5.03;;
55833;SDS011;41761;43.004;-0.066;2022-09-27T07:05:32;19.00;;;4.70;;
55833;SDS011;41761;43.004;-0.066;2022-09-27T07:07:58;24.75;;;5.50;;
55833;SDS011;41761;43.004;-0.066;2022-09-27T07:10:25;17.73;;;4.18;;
55833;SDS011;41761;43.004;-0.066;2022-09-27T07:12:51;19.23;;;4.25;;
55833;SDS011;41761;43.004;-0.066;2022-09-27T07:15:18;13.00;;;3.58;;
55833;SDS011;41761;43.004;-0.066;2022-09-27T07:17:46;12.13;;;4.20;;
55833;SDS011;41761;43.004;-0.066;2022-09-27T07:20:12;15.80;;;4.18;;
55833;SDS011;41761;43.004;-0.066;2022-09-27T07:22:40;20.38;;;4.22;;
55833;SDS011;41761;43.004;-0.066;2022-09-27T07:25:07;19.05;;;3.92;;
55833;SDS011;41761;43.004;-0.066;2022-09-27T07:27:34;20.27;;;4.93;;
55833;SDS011;41761;43.004;-0.066;2022-09-27T07:30:00;15.00;;;4.28;;
55833;SDS011;41761;43.004;-0.066;2022-09-27T07:32:26;15.80;;;4.25;;
55833;SDS011;41761;43.004;-0.066;2022-09-27T07:34:53;24.92;;;5.03;;
55833;SDS011;41761;43.004;-0.066;2022-09-27T07:37:19;13.32;;;4.10;;
55833;SDS011;41761;43.004;-0.066;2022-09-27T07:39:45;27.65;;;5.03;;
55833;SDS011;41761;43.004;-0.066;2022-09-27T07:42:11;32.53;;;6.85;;
55833;SDS011;41761;43.004;-0.066;2022-09-27T07:44:37;22.52;;;4.20;;
55833;SDS011;41761;43.004;-0.066;2022-09-27T07:47:06;27.52;;;5.20;;
55833;SDS011;41761;43.004;-0.066;2022-09-27T07:49:36;27.17;;;5.05;;
55833;SDS011;41761;43.004;-0.066;2022-09-27T07:52:02;20.05;;;5.07;;
55833;SDS011;41761;43.004;-0.066;2022-09-27T07:54:28;35.20;;;5.57;;
55833;SDS011;41761;43.004;-0.066;2022-09-27T07:56:55;31.45;;;6.63;;
55833;SDS011;41761;43.004;-0.066;2022-09-27T07:59:21;33.15;;;6.15;;
55833;SDS011;41761;43.004;-0.066;2022-09-27T08:01:47;21.92;;;5.70;;
55833;SDS011;41761;43.004;-0.066;2022-09-27T08:04:13;13.60;;;4.45;;
55833;SDS011;41761;43.004;-0.066;2022-09-27T08:06:39;11.88;;;4.10;;
55833;SDS011;41761;43.004;-0.066;2022-09-27T08:09:06;26.48;;;4.00;;
55833;SDS011;41761;43.004;-0.066;2022-09-27T08:11:36;43.47;;;5.07;;
55833;SDS011;41761;43.004;-0.066;2022-09-27T08:14:02;44.67;;;5.40;;
55833;SDS011;41761;43.004;-0.066;2022-09-27T08:16:29;31.90;;;5.00;;
55833;SDS011;41761;43.004;-0.066;2022-09-27T08:18:55;24.65;;;5.20;;
55833;SDS011;41761;43.004;-0.066;2022-09-27T08:21:21;50.63;;;5.68;;
55833;SDS011;41761;43.004;-0.066;2022-09-27T08:23:48;35.45;;;5.43;;
55833;SDS011;41761;43.004;-0.066;2022-09-27T08:26:14;50.78;;;5.80;;
55833;SDS011;41761;43.004;-0.066;2022-09-27T08:28:40;77.13;;;7.60;;
55833;SDS011;41761;43.004;-0.066;2022-09-27T08:31:06;33.08;;;5.55;;
55833;SDS011;41761;43.004;-0.066;2022-09-27T08:33:33;47.53;;;7.18;;
55833;SDS011;41761;43.004;-0.066;2022-09-27T08:35:59;33.72;;;6.40;;
55833;SDS011;41761;43.004;-0.066;2022-09-27T08:38:26;31.33;;;5.80;;
55833;SDS011;41761;43.004;-0.066;2022-09-27T08:40:56;31.60;;;5.72;;
55833;SDS011;41761;43.004;-0.066;2022-09-27T08:43:35;23.25;;;5.53;;
55833;SDS011;41761;43.004;-0.066;2022-09-27T08:48:30;30.67;;;4.82;;
55833;SDS011;41761;43.004;-0.066;2022-09-27T08:50:57;46.50;;;6.82;;
55833;SDS011;41761;43.004;-0.066;2022-09-27T08:53:30;41.97;;;6.90;;
55833;SDS011;41761;43.004;-0.066;2022-09-27T09:00:59;39.42;;;7.13;;
55833;SDS011;41761;43.004;-0.066;2022-09-27T09:03:29;32.20;;;6.10;;
55833;SDS011;41761;43.004;-0.066;2022-09-27T09:11:08;32.75;;;5.65;;
55833;SDS011;41761;43.004;-0.066;2022-09-27T09:16:56;31.90;;;5.35;;
55833;SDS011;41761;43.004;-0.066;2022-09-27T09:19:41;24.63;;;5.22;;
55833;SDS011;41761;43.004;-0.066;2022-09-27T09:37:49;21.17;;;4.38;;
55833;SDS011;41761;43.004;-0.066;2022-09-27T09:40:18;27.73;;;4.55;;
55833;SDS011;41761;43.004;-0.066;2022-09-27T09:47:46;22.52;;;5.13;;
55833;SDS011;41761;43.004;-0.066;2022-09-27T09:50:17;20.70;;;4.65;;
55833;SDS011;41761;43.004;-0.066;2022-09-27T09:52:46;19.35;;;4.35;;
55833;SDS011;41761;43.004;-0.066;2022-09-27T10:00:25;21.25;;;4.28;;
55833;SDS011;41761;43.004;-0.066;2022-09-27T10:02:52;16.85;;;4.88;;
55833;SDS011;41761;43.004;-0.066;2022-09-27T10:05:23;20.95;;;4.30;;
55833;SDS011;41761;43.004;-0.066;2022-09-27T10:07:50;19.60;;;4.72;;
55833;SDS011;41761;43.004;-0.066;2022-09-27T10:10:17;11.77;;;3.55;;
55833;SDS011;41761;43.004;-0.066;2022-09-27T10:12:44;16.95;;;5.00;;
55833;SDS011;41761;43.004;-0.066;2022-09-27T10:15:18;17.52;;;4.25;;
55833;SDS011;41761;43.004;-0.066;2022-09-27T10:17:49;14.48;;;4.45;;
55833;SDS011;41761;43.004;-0.066;2022-09-27T10:20:38;32.25;;;5.75;;
55833;SDS011;41761;43.004;-0.066;2022-09-27T10:23:13;17.45;;;4.00;;
55833;SDS011;41761;43.004;-0.066;2022-09-27T10:28:32;11.60;;;3.15;;
55833;SDS011;41761;43.004;-0.066;2022-09-27T10:31:06;13.30;;;3.35;;
55833;SDS011;41761;43.004;-0.066;2022-09-27T10:33:33;11.77;;;3.00;;
55833;SDS011;41761;43.004;-0.066;2022-09-27T10:36:00;8.65;;;2.55;;
55833;SDS011;41761;43.004;-0.066;2022-09-27T10:40:56;15.65;;;3.13;;
55833;SDS011;41761;43.004;-0.066;2022-09-27T10:43:24;12.73;;;3.30;;
55833;SDS011;41761;43.004;-0.066;2022-09-27T10:48:36;9.07;;;2.63;;
55833;SDS011;41761;43.004;-0.066;2022-09-27T10:51:04;8.20;;;3.25;;
55833;SDS011;41761;43.004;-0.066;2022-09-27T10:53:31;9.48;;;3.03;;
55833;SDS011;41761;43.004;-0.066;2022-09-27T10:55:58;13.32;;;2.88;;
55833;SDS011;41761;43.004;-0.066;2022-09-27T10:58:27;11.30;;;2.90;;
55833;SDS011;41761;43.004;-0.066;2022-09-27T11:00:55;11.70;;;3.20;;
55833;SDS011;41761;43.004;-0.066;2022-09-27T11:03:22;9.57;;;2.75;;
55833;SDS011;41761;43.004;-0.066;2022-09-27T11:05:50;9.38;;;2.53;;
55833;SDS011;41761;43.004;-0.066;2022-09-27T11:08:19;8.95;;;2.55;;
55833;SDS011;41761;43.004;-0.066;2022-09-27T11:11:05;6.05;;;2.08;;
55833;SDS011;41761;43.004;-0.066;2022-09-27T11:13:32;5.95;;;2.15;;
55833;SDS011;41761;43.004;-0.066;2022-09-27T11:21:30;6.13;;;2.40;;
55833;SDS011;41761;43.004;-0.066;2022-09-27T11:34:18;3.80;;;2.08;;
55833;SDS011;41761;43.004;-0.066;2022-09-27T12:03:31;18.25;;;9.65;;
55833;SDS011;41761;43.004;-0.066;2022-09-27T12:06:11;6.75;;;2.50;;
55833;SDS011;41761;43.004;-0.066;2022-09-27T12:08:48;11.30;;;5.88;;
55833;SDS011;41761;43.004;-0.066;2022-09-27T12:11:20;5.32;;;2.92;;
55833;SDS011;41761;43.004;-0.066;2022-09-27T12:13:48;8.30;;;2.80;;
55833;SDS011;41761;43.004;-0.066;2022-09-27T12:16:15;6.47;;;1.65;;
55833;SDS011;41761;43.004;-0.066;2022-09-27T12:18:42;5.18;;;1.90;;
55833;SDS011;41761;43.004;-0.066;2022-09-27T12:21:09;4.78;;;1.83;;
55833;SDS011;41761;43.004;-0.066;2022-09-27T12:26:03;7.45;;;2.13;;
55833;SDS011;41761;43.004;-0.066;2022-09-27T12:28:34;5.93;;;2.55;;
55833;SDS011;41761;43.004;-0.066;2022-09-27T12:31:14;6.00;;;2.13;;
55833;SDS011;41761;43.004;-0.066;2022-09-27T12:33:43;9.43;;;2.78;;
55833;SDS011;41761;43.004;-0.066;2022-09-27T12:36:14;12.80;;;3.20;;
55833;SDS011;41761;43.004;-0.066;2022-09-27T12:38:46;6.28;;;2.10;;
55833;SDS011;41761;43.004;-0.066;2022-09-27T12:41:16;8.07;;;2.22;;
55833;SDS011;41761;43.004;-0.066;2022-09-27T12:43:45;9.02;;;2.03;;
55833;SDS011;41761;43.004;-0.066;2022-09-27T12:51:25;14.00;;;2.97;;
55833;SDS011;41761;43.004;-0.066;2022-09-27T12:54:21;6.78;;;2.35;;
55833;SDS011;41761;43.004;-0.066;2022-09-27T13:10:39;9.43;;;2.42;;
55833;SDS011;41761;43.004;-0.066;2022-09-27T13:13:11;13.95;;;2.50;;
55833;SDS011;41761;43.004;-0.066;2022-09-27T13:15:39;11.75;;;4.28;;
55833;SDS011;41761;43.004;-0.066;2022-09-27T13:20:52;15.10;;;3.00;;
55833;SDS011;41761;43.004;-0.066;2022-09-27T13:25:56;9.50;;;2.90;;
55833;SDS011;41761;43.004;-0.066;2022-09-27T13:41:26;15.02;;;3.70;;
55833;SDS011;41761;43.004;-0.066;2022-09-27T13:43:59;11.05;;;3.47;;
55833;SDS011;41761;43.004;-0.066;2022-09-27T13:46:29;17.83;;;2.60;;
55833;SDS011;41761;43.004;-0.066;2022-09-27T13:56:53;16.90;;;4.18;;
55833;SDS011;41761;43.004;-0.066;2022-09-27T13:59:24;16.25;;;3.63;;
55833;SDS011;41761;43.004;-0.066;2022-09-27T14:01:53;22.95;;;4.97;;
55833;SDS011;41761;43.004;-0.066;2022-09-27T14:04:28;14.00;;;3.20;;
55833;SDS011;41761;43.004;-0.066;2022-09-27T14:06:56;14.63;;;3.90;;
55833;SDS011;41761;43.004;-0.066;2022-09-27T14:09:25;20.92;;;4.97;;
55833;SDS011;41761;43.004;-0.066;2022-09-27T14:11:52;22.50;;;4.40;;
55833;SDS011;41761;43.004;-0.066;2022-09-27T14:14:25;15.88;;;4.53;;
55833;SDS011;41761;43.004;-0.066;2022-09-27T14:16:52;27.98;;;4.05;;
55833;SDS011;41761;43.004;-0.066;2022-09-27T14:19:19;25.67;;;5.05;;
55833;SDS011;41761;43.004;-0.066;2022-09-27T14:21:46;23.42;;;5.40;;
55833;SDS011;41761;43.004;-0.066;2022-09-27T14:29:44;33.22;;;5.03;;
55833;SDS011;41761;43.004;-0.066;2022-09-27T14:32:12;25.67;;;5.22;;
55833;SDS011;41761;43.004;-0.066;2022-09-27T14:34:39;28.70;;;4.82;;
55833;SDS011;41761;43.004;-0.066;2022-09-27T14:37:12;19.95;;;5.00;;
55833;SDS011;41761;43.004;-0.066;2022-09-27T14:39:52;25.90;;;5.40;;
55833;SDS011;41761;43.004;-0.066;2022-09-27T14:42:19;26.77;;;5.82;;
55833;SDS011;41761;43.004;-0.066;2022-09-27T14:44:46;24.58;;;5.78;;
55833;SDS011;41761;43.004;-0.066;2022-09-27T14:47:20;19.98;;;5.50;;
55833;SDS011;41761;43.004;-0.066;2022-09-27T14:49:54;25.55;;;6.05;;
55833;SDS011;41761;43.004;-0.066;2022-09-27T14:54:55;23.60;;;4.53;;
55833;SDS011;41761;43.004;-0.066;2022-09-27T14:57:22;23.88;;;5.38;;
55833;SDS011;41761;43.004;-0.066;2022-09-27T14:59:48;20.15;;;4.63;;
55833;SDS011;41761;43.004;-0.066;2022-09-27T15:02:16;27.85;;;5.18;;
55833;SDS011;41761;43.004;-0.066;2022-09-27T15:04:45;25.63;;;4.15;;
55833;SDS011;41761;43.004;-0.066;2022-09-27T15:07:12;31.20;;;5.32;;
55833;SDS011;41761;43.004;-0.066;2022-09-27T15:09:42;28.77;;;6.20;;
55833;SDS011;41761;43.004;-0.066;2022-09-27T15:12:10;26.85;;;5.63;;
55833;SDS011;41761;43.004;-0.066;2022-09-27T15:14:38;28.67;;;6.05;;
55833;SDS011;41761;43.004;-0.066;2022-09-27T15:17:16;28.50;;;6.32;;
55833;SDS011;41761;43.004;-0.066;2022-09-27T15:22:36;36.90;;;5.95;;
55833;SDS011;41761;43.004;-0.066;2022-09-27T15:25:21;28.58;;;6.28;;
55833;SDS011;41761;43.004;-0.066;2022-09-27T15:27:52;39.38;;;7.25;;
55833;SDS011;41761;43.004;-0.066;2022-09-27T15:30:23;27.25;;;6.57;;
55833;SDS011;41761;43.004;-0.066;2022-09-27T15:32:51;36.13;;;7.30;;
55833;SDS011;41761;43.004;-0.066;2022-09-27T15:35:21;40.33;;;6.82;;
55833;SDS011;41761;43.004;-0.066;2022-09-27T15:37:48;30.75;;;6.97;;
55833;SDS011;41761;43.004;-0.066;2022-09-27T15:42:54;38.60;;;6.90;;
55833;SDS011;41761;43.004;-0.066;2022-09-27T15:45:32;35.58;;;7.40;;
55833;SDS011;41761;43.004;-0.066;2022-09-27T15:48:06;37.78;;;8.52;;
55833;SDS011;41761;43.004;-0.066;2022-09-27T15:50:38;35.60;;;7.18;;
55833;SDS011;41761;43.004;-0.066;2022-09-27T15:53:05;34.45;;;6.88;;
55833;SDS011;41761;43.004;-0.066;2022-09-27T15:55:33;25.27;;;5.40;;
55833;SDS011;41761;43.004;-0.066;2022-09-27T15:58:04;38.78;;;7.03;;
55833;SDS011;41761;43.004;-0.066;2022-09-27T16:00:32;29.05;;;6.30;;
55833;SDS011;41761;43.004;-0.066;2022-09-27T16:03:02;28.05;;;6.18;;
55833;SDS011;41761;43.004;-0.066;2022-09-27T16:05:28;30.98;;;7.00;;
55833;SDS011;41761;43.004;-0.066;2022-09-27T16:07:57;29.83;;;6.90;;
55833;SDS011;41761;43.004;-0.066;2022-09-27T16:10:33;29.05;;;6.00;;
55833;SDS011;41761;43.004;-0.066;2022-09-27T16:13:01;29.67;;;7.13;;
55833;SDS011;41761;43.004;-0.066;2022-09-27T16:15:27;27.60;;;6.70;;
55833;SDS011;41761;43.004;-0.066;2022-09-27T16:17:53;31.10;;;5.78;;
55833;SDS011;41761;43.004;-0.066;2022-09-27T16:20:22;29.90;;;6.57;;
55833;SDS011;41761;43.004;-0.066;2022-09-27T16:22:49;24.33;;;5.93;;
55833;SDS011;41761;43.004;-0.066;2022-09-27T16:25:16;30.15;;;6.72;;
55833;SDS011;41761;43.004;-0.066;2022-09-27T16:27:42;28.45;;;6.47;;
55833;SDS011;41761;43.004;-0.066;2022-09-27T16:30:08;32.58;;;6.72;;
55833;SDS011;41761;43.004;-0.066;2022-09-27T16:32:39;33.70;;;6.75;;
55833;SDS011;41761;43.004;-0.066;2022-09-27T16:35:05;25.67;;;5.90;;
55833;SDS011;41761;43.004;-0.066;2022-09-27T16:37:32;32.00;;;5.72;;
55833;SDS011;41761;43.004;-0.066;2022-09-27T16:39:58;29.98;;;5.68;;
55833;SDS011;41761;43.004;-0.066;2022-09-27T16:42:28;26.55;;;6.13;;
55833;SDS011;41761;43.004;-0.066;2022-09-27T16:44:54;29.27;;;5.90;;
55833;SDS011;41761;43.004;-0.066;2022-09-27T16:47:20;32.22;;;6.40;;
55833;SDS011;41761;43.004;-0.066;2022-09-27T16:49:46;30.63;;;6.38;;
55833;SDS011;41761;43.004;-0.066;2022-09-27T16:52:31;36.72;;;7.00;;
55833;SDS011;41761;43.004;-0.066;2022-09-27T16:54:57;25.92;;;6.15;;
55833;SDS011;41761;43.004;-0.066;2022-09-27T16:57:25;29.17;;;6.28;;
55833;SDS011;41761;43.004;-0.066;2022-09-27T16:59:57;33.67;;;6.53;;
55833;SDS011;41761;43.004;-0.066;2022-09-27T17:02:23;37.97;;;7.65;;
55833;SDS011;41761;43.004;-0.066;2022-09-27T17:04:50;33.28;;;7.57;;
55833;SDS011;41761;43.004;-0.066;2022-09-27T17:07:17;44.58;;;9.02;;
55833;SDS011;41761;43.004;-0.066;2022-09-27T17:09:43;50.70;;;13.35;;
55833;SDS011;41761;43.004;-0.066;2022-09-27T17:12:10;49.50;;;14.60;;
55833;SDS011;41761;43.004;-0.066;2022-09-27T17:14:36;43.08;;;10.93;;
55833;SDS011;41761;43.004;-0.066;2022-09-27T17:17:02;48.00;;;10.88;;
55833;SDS011;41761;43.004;-0.066;2022-09-27T17:19:28;31.17;;;7.57;;
55833;SDS011;41761;43.004;-0.066;2022-09-27T17:21:55;41.00;;;7.50;;
55833;SDS011;41761;43.004;-0.066;2022-09-27T17:24:21;38.17;;;8.20;;
55833;SDS011;41761;43.004;-0.066;2022-09-27T17:26:48;38.42;;;7.45;;
55833;SDS011;41761;43.004;-0.066;2022-09-27T17:29:14;43.42;;;8.77;;
55833;SDS011;41761;43.004;-0.066;2022-09-27T17:31:40;42.83;;;8.85;;
55833;SDS011;41761;43.004;-0.066;2022-09-27T17:34:09;58.95;;;7.88;;
55833;SDS011;41761;43.004;-0.066;2022-09-27T17:36:37;38.20;;;7.20;;
55833;SDS011;41761;43.004;-0.066;2022-09-27T17:39:12;41.70;;;8.15;;
55833;SDS011;41761;43.004;-0.066;2022-09-27T17:44:04;43.60;;;8.18;;
55833;SDS011;41761;43.004;-0.066;2022-09-27T17:46:34;48.03;;;8.27;;
55833;SDS011;41761;43.004;-0.066;2022-09-27T17:49:01;42.47;;;7.80;;
55833;SDS011;41761;43.004;-0.066;2022-09-27T17:51:50;37.60;;;7.25;;